Time;durP1;ratioP1;P1;durP2;ratioP2;P2;SDS_P1;SDS_P2;PMS_P1;PMS_P2;Temp;Humidity;BMP_temperature;BMP_pressure;BME280_temperature;BME280_humidity;BME280_pressure;Samples;Min_cycle;Max_cycle;Signal;HPM_P1;HPM_P2
2021/07/31 00:00:44;;;;;;;5.45;2.67;;;;;;;;;;5043867;28;20123;-86
2021/07/31 00:03:29;;;;;;;3.10;2.38;;;;;;;;;;5054908;28;20094;-86
2021/07/31 00:06:13;;;;;;;5.05;2.17;;;;;;;;;;5072991;28;20456;-88
2021/07/31 00:08:58;;;;;;;3.42;2.38;;;;;;;;;;5059707;28;20479;-86
2021/07/31 00:11:43;;;;;;;3.63;2.13;;;;;;;;;;5057059;28;20047;-87
2021/07/31 00:14:31;;;;;;;3.38;2.17;;;;;;;;;;5041413;28;20040;-88
2021/07/31 00:17:16;;;;;;;2.30;2.00;;;;;;;;;;5059977;28;20036;-88
2021/07/31 00:20:00;;;;;;;3.13;2.15;;;;;;;;;;5054142;28;20043;-88
2021/07/31 00:22:44;;;;;;;4.03;2.35;;;;;;;;;;5044746;28;20079;-87
2021/07/31 00:25:29;;;;;;;3.33;2.10;;;;;;;;;;5082226;28;20522;-87
2021/07/31 00:28:13;;;;;;;3.58;2.20;;;;;;;;;;5074409;28;20035;-88
2021/07/31 00:30:58;;;;;;;3.47;2.15;;;;;;;;;;5062359;28;20116;-87
2021/07/31 00:33:42;;;;;;;3.05;2.15;;;;;;;;;;5032720;28;20044;-86
2021/07/31 00:36:27;;;;;;;2.83;1.92;;;;;;;;;;5055020;28;20036;-88
2021/07/31 00:39:11;;;;;;;3.70;2.30;;;;;;;;;;5037306;28;20603;-87
2021/07/31 00:41:56;;;;;;;4.22;2.40;;;;;;;;;;5043858;28;20035;-87
2021/07/31 00:44:40;;;;;;;2.75;2.15;;;;;;;;;;5068996;28;20082;-87
2021/07/31 00:47:25;;;;;;;3.67;2.20;;;;;;;;;;5033123;28;20076;-87
2021/07/31 00:50:10;;;;;;;2.45;1.88;;;;;;;;;;5040371;28;20579;-86
2021/07/31 00:52:55;;;;;;;4.18;2.00;;;;;;;;;;5054347;28;20082;-86
2021/07/31 00:55:40;;;;;;;4.32;2.10;;;;;;;;;;5048530;28;20086;-86
2021/07/31 00:58:24;;;;;;;2.70;1.98;;;;;;;;;;5045554;28;20100;-81
2021/07/31 01:01:09;;;;;;;2.50;1.77;;;;;;;;;;5050808;28;20079;-86
2021/07/31 01:03:54;;;;;;;3.90;2.00;;;;;;;;;;5060355;28;20078;-85
2021/07/31 01:06:38;;;;;;;3.38;2.08;;;;;;;;;;5041468;28;20039;-86
2021/07/31 01:09:22;;;;;;;2.97;2.05;;;;;;;;;;5046952;28;20459;-80
2021/07/31 01:12:07;;;;;;;3.17;1.80;;;;;;;;;;5054652;28;20039;-87
2021/07/31 01:14:51;;;;;;;3.00;2.08;;;;;;;;;;5057623;28;20558;-87
2021/07/31 01:17:36;;;;;;;2.45;1.90;;;;;;;;;;5062713;28;20420;-86
2021/07/31 01:20:21;;;;;;;3.60;1.88;;;;;;;;;;5066265;28;20114;-87
2021/07/31 01:23:06;;;;;;;2.85;2.00;;;;;;;;;;5052236;28;20038;-80
2021/07/31 01:25:50;;;;;;;3.08;1.80;;;;;;;;;;5060933;28;20043;-87
2021/07/31 01:28:35;;;;;;;2.28;1.80;;;;;;;;;;5038298;28;20567;-88
2021/07/31 01:31:19;;;;;;;2.70;1.88;;;;;;;;;;5068217;28;20655;-86
2021/07/31 01:34:04;;;;;;;2.75;1.65;;;;;;;;;;5044943;28;20078;-87
2021/07/31 01:36:49;;;;;;;2.70;2.00;;;;;;;;;;5035443;28;20047;-87
2021/07/31 01:39:33;;;;;;;2.42;1.95;;;;;;;;;;5055045;28;20044;-87
2021/07/31 01:42:18;;;;;;;2.40;1.80;;;;;;;;;;5053724;28;20047;-87
2021/07/31 01:45:03;;;;;;;2.78;2.00;;;;;;;;;;5054642;28;20158;-87
2021/07/31 01:47:47;;;;;;;2.90;2.08;;;;;;;;;;5055734;28;20058;-86
2021/07/31 01:50:32;;;;;;;3.97;1.90;;;;;;;;;;5069484;28;20055;-86
2021/07/31 01:53:16;;;;;;;3.17;2.00;;;;;;;;;;5033965;28;20146;-80
2021/07/31 01:56:01;;;;;;;2.08;1.58;;;;;;;;;;5056248;28;20105;-87
2021/07/31 01:58:45;;;;;;;3.20;1.92;;;;;;;;;;5048696;28;20055;-87
2021/07/31 02:01:30;;;;;;;3.08;2.00;;;;;;;;;;5076175;28;20043;-87
2021/07/31 02:04:15;;;;;;;3.30;2.00;;;;;;;;;;5049126;28;20109;-87
2021/07/31 02:07:00;;;;;;;2.30;1.90;;;;;;;;;;5060180;28;20082;-86
2021/07/31 02:09:45;;;;;;;2.58;1.70;;;;;;;;;;5065196;28;20043;-86
2021/07/31 02:12:29;;;;;;;3.30;1.95;;;;;;;;;;5055392;28;20672;-87
2021/07/31 02:15:14;;;;;;;3.00;1.83;;;;;;;;;;5060667;28;20039;-86
2021/07/31 02:17:59;;;;;;;3.42;2.00;;;;;;;;;;5072541;28;20043;-87
2021/07/31 02:20:44;;;;;;;4.25;2.10;;;;;;;;;;5036531;28;20043;-87
2021/07/31 02:23:29;;;;;;;3.00;1.92;;;;;;;;;;5067677;28;20081;-87
2021/07/31 02:26:13;;;;;;;3.47;1.80;;;;;;;;;;5057553;28;20092;-86
2021/07/31 02:28:58;;;;;;;3.25;1.90;;;;;;;;;;5053427;28;20491;-86
2021/07/31 02:31:43;;;;;;;2.33;1.65;;;;;;;;;;5052555;28;20050;-87
2021/07/31 02:34:27;;;;;;;3.78;2.00;;;;;;;;;;5051887;28;20406;-86
2021/07/31 02:37:12;;;;;;;3.40;1.80;;;;;;;;;;5052990;28;20048;-88
2021/07/31 02:39:56;;;;;;;2.85;1.60;;;;;;;;;;5059804;28;20059;-87
2021/07/31 02:42:41;;;;;;;2.92;1.80;;;;;;;;;;5043564;28;20063;-85
2021/07/31 02:45:25;;;;;;;2.20;1.60;;;;;;;;;;5072586;28;20117;-86
2021/07/31 02:48:10;;;;;;;3.42;1.77;;;;;;;;;;5051187;28;20500;-87
2021/07/31 02:51:00;;;;;;;3.80;1.90;;;;;;;;;;5040578;28;20083;-87
2021/07/31 02:53:45;;;;;;;4.22;1.98;;;;;;;;;;5052294;28;20036;-87
2021/07/31 02:56:30;;;;;;;3.00;1.65;;;;;;;;;;5069050;28;20047;-87
2021/07/31 02:59:14;;;;;;;1.88;1.38;;;;;;;;;;5054356;28;20452;-87
2021/07/31 03:01:59;;;;;;;2.20;1.50;;;;;;;;;;5067724;28;20044;-87
2021/07/31 03:04:43;;;;;;;2.50;1.55;;;;;;;;;;5049276;28;20657;-88
2021/07/31 03:07:27;;;;;;;2.70;1.70;;;;;;;;;;5069731;28;20401;-86
2021/07/31 03:10:13;;;;;;;3.15;1.80;;;;;;;;;;5039587;28;20039;-87
2021/07/31 03:12:58;;;;;;;2.85;1.83;;;;;;;;;;5054534;28;20042;-87
2021/07/31 03:15:42;;;;;;;2.42;1.55;;;;;;;;;;5062491;28;20047;-87
2021/07/31 03:18:27;;;;;;;3.28;1.58;;;;;;;;;;5084126;28;20035;-86
2021/07/31 03:21:11;;;;;;;5.25;1.73;;;;;;;;;;5056543;28;20500;-86
2021/07/31 03:23:56;;;;;;;2.55;1.88;;;;;;;;;;5038967;28;20047;-87
2021/07/31 03:26:40;;;;;;;2.75;1.70;;;;;;;;;;5052468;28;20038;-88
2021/07/31 03:29:25;;;;;;;2.75;1.73;;;;;;;;;;5055599;28;20622;-87
2021/07/31 03:32:10;;;;;;;3.20;1.80;;;;;;;;;;5037609;28;20082;-88
2021/07/31 03:34:54;;;;;;;3.38;1.73;;;;;;;;;;5044609;28;20095;-88
2021/07/31 03:37:39;;;;;;;2.10;1.70;;;;;;;;;;5072840;28;20573;-88
2021/07/31 03:40:23;;;;;;;2.95;1.60;;;;;;;;;;5076528;28;20178;-87
2021/07/31 03:43:08;;;;;;;2.53;1.50;;;;;;;;;;5042736;28;20118;-87
2021/07/31 03:45:52;;;;;;;3.80;1.75;;;;;;;;;;5044285;28;20144;-89
2021/07/31 03:48:37;;;;;;;2.40;1.90;;;;;;;;;;5059756;28;20647;-87
2021/07/31 03:51:22;;;;;;;3.17;1.77;;;;;;;;;;5064576;28;20046;-87
2021/07/31 03:54:06;;;;;;;2.83;1.80;;;;;;;;;;5055455;28;20075;-86
2021/07/31 03:56:51;;;;;;;3.50;1.67;;;;;;;;;;5055480;28;20070;-87
2021/07/31 03:59:35;;;;;;;2.75;1.70;;;;;;;;;;5063945;28;20036;-87
2021/07/31 04:02:20;;;;;;;2.35;1.50;;;;;;;;;;5053790;28;20133;-87
2021/07/31 04:05:05;;;;;;;3.35;1.70;;;;;;;;;;5067238;28;20035;-87
2021/07/31 04:07:50;;;;;;;2.88;1.80;;;;;;;;;;5052459;28;20083;-86
2021/07/31 04:10:38;;;;;;;2.92;1.80;;;;;;;;;;5049490;28;20047;-87
2021/07/31 04:13:22;;;;;;;4.43;1.92;;;;;;;;;;5058252;28;20039;-87
2021/07/31 04:16:07;;;;;;;3.42;1.75;;;;;;;;;;5040991;28;20155;-87
2021/07/31 04:18:52;;;;;;;3.17;1.60;;;;;;;;;;5065652;28;20036;-86
2021/07/31 04:21:36;;;;;;;2.30;1.50;;;;;;;;;;5048008;28;20031;-86
2021/07/31 04:24:21;;;;;;;3.60;1.63;;;;;;;;;;5058518;28;20051;-86
2021/07/31 04:27:06;;;;;;;4.55;1.80;;;;;;;;;;5057826;28;20039;-88
2021/07/31 04:29:50;;;;;;;1.75;1.45;;;;;;;;;;5052709;28;20554;-89
2021/07/31 04:32:35;;;;;;;2.05;1.63;;;;;;;;;;5065694;28;20419;-87
2021/07/31 04:35:19;;;;;;;2.55;1.60;;;;;;;;;;5039675;28;20092;-86
2021/07/31 04:38:03;;;;;;;2.08;1.50;;;;;;;;;;5069700;28;20085;-87
2021/07/31 04:40:48;;;;;;;2.60;1.80;;;;;;;;;;5054832;28;20457;-86
2021/07/31 04:43:32;;;;;;;3.55;2.03;;;;;;;;;;5041193;28;20035;-85
2021/07/31 04:46:17;;;;;;;3.10;1.65;;;;;;;;;;5042651;28;20064;-87
2021/07/31 04:49:01;;;;;;;2.38;1.70;;;;;;;;;;5045919;28;20036;-87
2021/07/31 04:51:46;;;;;;;2.28;1.60;;;;;;;;;;5040833;28;20051;-86
2021/07/31 04:54:30;;;;;;;2.72;1.55;;;;;;;;;;5048740;28;20038;-86
2021/07/31 04:57:15;;;;;;;2.33;1.55;;;;;;;;;;5055071;28;20109;-86
2021/07/31 04:59:59;;;;;;;2.45;1.60;;;;;;;;;;5052508;28;20039;-84
2021/07/31 05:02:44;;;;;;;2.42;1.63;;;;;;;;;;5052233;28;20134;-83
2021/07/31 05:05:28;;;;;;;2.80;1.60;;;;;;;;;;5042440;28;20508;-81
2021/07/31 05:08:13;;;;;;;3.13;1.80;;;;;;;;;;5072025;28;20034;-87
2021/07/31 05:10:57;;;;;;;3.05;1.35;;;;;;;;;;5068535;28;20311;-87
2021/07/31 05:13:42;;;;;;;3.08;1.83;;;;;;;;;;5048389;28;20040;-87
2021/07/31 05:16:28;;;;;;;2.35;1.40;;;;;;;;;;5055795;28;20078;-83
2021/07/31 05:19:13;;;;;;;2.45;1.58;;;;;;;;;;5056209;28;20059;-87
2021/07/31 05:21:57;;;;;;;2.50;1.70;;;;;;;;;;5037133;28;20544;-88
2021/07/31 05:24:42;;;;;;;2.60;1.52;;;;;;;;;;5071412;28;20137;-88
2021/07/31 05:27:27;;;;;;;2.58;1.70;;;;;;;;;;5051659;28;20035;-81
2021/07/31 05:30:12;;;;;;;3.00;1.80;;;;;;;;;;5040401;28;20150;-88
2021/07/31 05:32:56;;;;;;;3.10;1.67;;;;;;;;;;5052881;28;20110;-87
2021/07/31 05:35:41;;;;;;;3.17;1.60;;;;;;;;;;5069026;28;20055;-88
2021/07/31 05:38:25;;;;;;;3.13;1.83;;;;;;;;;;5059291;28;20067;-87
2021/07/31 05:41:16;;;;;;;2.97;1.52;;;;;;;;;;5056294;28;20044;-87
2021/07/31 05:44:01;;;;;;;2.80;1.50;;;;;;;;;;5056256;28;20089;-87
2021/07/31 05:46:45;;;;;;;3.30;1.80;;;;;;;;;;5068047;28;20047;-88
2021/07/31 05:49:30;;;;;;;2.63;1.50;;;;;;;;;;5046830;28;20046;-88
2021/07/31 05:52:15;;;;;;;2.55;1.48;;;;;;;;;;5047965;28;20260;-88
2021/07/31 05:55:00;;;;;;;2.40;1.58;;;;;;;;;;5053130;28;20459;-87
2021/07/31 05:57:45;;;;;;;2.20;1.60;;;;;;;;;;5063741;28;20039;-87
2021/07/31 06:00:29;;;;;;;2.08;1.50;;;;;;;;;;5076441;28;20039;-88
2021/07/31 06:03:14;;;;;;;2.42;1.60;;;;;;;;;;5058050;28;20039;-89
2021/07/31 06:05:58;;;;;;;4.43;1.80;;;;;;;;;;5043268;28;20473;-80
2021/07/31 06:08:43;;;;;;;2.28;1.60;;;;;;;;;;5054053;28;20047;-87
2021/07/31 06:11:27;;;;;;;4.00;1.65;;;;;;;;;;5044853;28;20039;-87
2021/07/31 06:14:12;;;;;;;1.88;1.42;;;;;;;;;;5067988;28;20889;-86
2021/07/31 06:16:57;;;;;;;2.58;1.52;;;;;;;;;;5066792;28;20400;-87
2021/07/31 06:19:41;;;;;;;2.42;1.40;;;;;;;;;;5062299;28;20485;-87
2021/07/31 06:22:26;;;;;;;3.85;1.67;;;;;;;;;;5056225;28;20070;-86
2021/07/31 06:25:11;;;;;;;3.38;1.70;;;;;;;;;;5075823;28;20097;-87
2021/07/31 06:27:55;;;;;;;2.60;1.58;;;;;;;;;;5054135;28;20154;-87
2021/07/31 06:30:43;;;;;;;2.75;1.50;;;;;;;;;;5049151;28;20043;-88
2021/07/31 06:33:27;;;;;;;2.30;1.50;;;;;;;;;;5067817;28;20044;-87
2021/07/31 06:36:12;;;;;;;3.55;1.70;;;;;;;;;;5045603;28;20090;-88
2021/07/31 06:38:56;;;;;;;2.38;1.58;;;;;;;;;;5054481;28;20043;-87
2021/07/31 06:41:41;;;;;;;2.88;1.80;;;;;;;;;;5055638;28;20094;-87
2021/07/31 06:44:25;;;;;;;2.25;1.55;;;;;;;;;;5052476;28;20043;-80
2021/07/31 06:47:10;;;;;;;2.10;1.45;;;;;;;;;;5051714;28;20063;-88
2021/07/31 06:49:54;;;;;;;2.95;1.88;;;;;;;;;;5037574;28;20535;-87
2021/07/31 06:52:39;;;;;;;2.38;1.90;;;;;;;;;;5050268;28;20098;-78
2021/07/31 06:55:24;;;;;;;2.65;1.70;;;;;;;;;;5034041;28;20086;-87
2021/07/31 06:58:08;;;;;;;4.75;1.73;;;;;;;;;;5038423;28;20043;-84
2021/07/31 07:00:52;;;;;;;1.90;1.50;;;;;;;;;;5042702;28;20047;-88
2021/07/31 07:03:37;;;;;;;2.50;1.70;;;;;;;;;;5051873;28;20047;-87
2021/07/31 07:06:22;;;;;;;2.95;1.77;;;;;;;;;;5051443;28;20102;-85
2021/07/31 07:09:07;;;;;;;2.85;1.55;;;;;;;;;;5038292;28;20086;-87
2021/07/31 07:11:51;;;;;;;2.30;1.60;;;;;;;;;;5037496;28;20035;-80
2021/07/31 07:14:36;;;;;;;3.28;2.10;;;;;;;;;;5068288;28;20401;-85
2021/07/31 07:17:21;;;;;;;2.75;1.70;;;;;;;;;;5064878;28;20123;-86
2021/07/31 07:20:06;;;;;;;2.60;1.88;;;;;;;;;;5066024;28;20047;-87
2021/07/31 07:22:51;;;;;;;2.42;1.83;;;;;;;;;;5050936;28;20047;-86
2021/07/31 07:25:36;;;;;;;2.60;1.90;;;;;;;;;;5050285;28;20097;-87
2021/07/31 07:28:21;;;;;;;2.70;1.70;;;;;;;;;;5054700;28;20071;-86
2021/07/31 07:31:06;;;;;;;2.65;1.95;;;;;;;;;;5030272;28;20086;-86
2021/07/31 07:33:53;;;;;;;2.47;1.60;;;;;;;;;;5051204;28;20666;-85
2021/07/31 07:36:38;;;;;;;2.70;1.90;;;;;;;;;;5060401;28;20047;-84
2021/07/31 07:39:22;;;;;;;2.95;2.00;;;;;;;;;;5056257;28;20040;-86
2021/07/31 07:42:07;;;;;;;2.20;1.70;;;;;;;;;;5049060;28;20039;-87
2021/07/31 07:44:52;;;;;;;3.08;1.90;;;;;;;;;;5048997;28;20101;-88
2021/07/31 07:47:37;;;;;;;2.80;1.63;;;;;;;;;;5050519;28;20082;-85
2021/07/31 07:50:21;;;;;;;4.45;2.15;;;;;;;;;;5051137;28;20418;-86
2021/07/31 07:53:06;;;;;;;3.33;1.95;;;;;;;;;;5051063;28;20173;-84
2021/07/31 07:55:50;;;;;;;2.35;1.90;;;;;;;;;;5043102;28;20036;-85
2021/07/31 07:58:35;;;;;;;3.38;1.98;;;;;;;;;;5038789;28;20093;-86
2021/07/31 08:01:19;;;;;;;2.70;1.90;;;;;;;;;;5036798;28;20087;-84
2021/07/31 08:04:04;;;;;;;4.95;2.20;;;;;;;;;;5058272;28;20039;-86
2021/07/31 08:06:48;;;;;;;3.15;1.95;;;;;;;;;;5070484;28;20067;-85
2021/07/31 08:09:35;;;;;;;3.85;2.10;;;;;;;;;;5053707;28;20047;-85
2021/07/31 08:12:20;;;;;;;2.67;1.88;;;;;;;;;;5040814;28;20071;-86
2021/07/31 08:15:05;;;;;;;4.32;2.28;;;;;;;;;;5030304;28;20104;-87
2021/07/31 08:17:50;;;;;;;4.70;2.58;;;;;;;;;;5044628;28;20090;-85
2021/07/31 08:20:35;;;;;;;4.55;2.65;;;;;;;;;;5051466;28;20040;-86
2021/07/31 08:23:19;;;;;;;10.75;3.42;;;;;;;;;;5054574;28;20137;-85
2021/07/31 08:26:08;;;;;;;16.00;5.20;;;;;;;;;;5068350;28;20415;-85
2021/07/31 08:28:53;;;;;;;8.05;3.67;;;;;;;;;;5054410;28;20463;-85
2021/07/31 08:31:40;;;;;;;11.68;4.10;;;;;;;;;;5062517;28;20090;-88
2021/07/31 08:34:25;;;;;;;15.15;4.88;;;;;;;;;;5039074;28;20043;-88
2021/07/31 08:37:11;;;;;;;19.23;5.38;;;;;;;;;;5059116;28;20074;-88
2021/07/31 08:39:55;;;;;;;13.82;4.63;;;;;;;;;;5066379;28;20063;-87
2021/07/31 08:42:40;;;;;;;13.65;4.85;;;;;;;;;;5044721;28;20072;-86
2021/07/31 08:45:25;;;;;;;11.40;4.47;;;;;;;;;;5044470;28;20055;-87
2021/07/31 08:48:10;;;;;;;11.95;4.28;;;;;;;;;;5052307;28;20040;-86
2021/07/31 08:50:58;;;;;;;16.98;4.47;;;;;;;;;;5036803;28;20413;-85
2021/07/31 08:53:43;;;;;;;14.02;4.78;;;;;;;;;;5034689;28;20093;-87
2021/07/31 08:56:27;;;;;;;13.75;4.78;;;;;;;;;;5050720;28;20078;-86
2021/07/31 08:59:12;;;;;;;14.10;4.88;;;;;;;;;;5036394;28;20047;-87
2021/07/31 09:01:57;;;;;;;13.48;5.63;;;;;;;;;;5036735;28;20036;-84
2021/07/31 09:04:43;;;;;;;16.63;5.95;;;;;;;;;;5050545;28;20512;-85
2021/07/31 09:07:28;;;;;;;15.50;5.78;;;;;;;;;;5038670;28;20047;-86
2021/07/31 09:10:22;;;;;;;18.88;6.28;;;;;;;;;;5047336;28;20543;-82
2021/07/31 09:13:08;;;;;;;10.13;5.07;;;;;;;;;;5062846;28;20067;-80
2021/07/31 09:15:54;;;;;;;8.30;3.67;;;;;;;;;;5047779;28;20040;-85
2021/07/31 09:18:45;;;;;;;9.40;3.47;;;;;;;;;;5048707;28;20137;-78
2021/07/31 09:21:30;;;;;;;10.40;4.22;;;;;;;;;;5037302;28;20111;-80
2021/07/31 09:24:15;;;;;;;8.07;4.15;;;;;;;;;;5049099;28;20090;-83
2021/07/31 09:26:59;;;;;;;5.90;3.30;;;;;;;;;;5051631;28;20079;-78
2021/07/31 09:29:44;;;;;;;8.77;3.67;;;;;;;;;;5036270;28;20170;-81
2021/07/31 09:32:39;;;;;;;6.68;3.35;;;;;;;;;;5047304;28;20559;-80
2021/07/31 09:35:24;;;;;;;6.53;3.10;;;;;;;;;;5048574;28;20094;-81
2021/07/31 09:38:09;;;;;;;6.03;3.42;;;;;;;;;;5049010;28;20075;-80
2021/07/31 09:40:53;;;;;;;5.90;3.15;;;;;;;;;;5045397;28;20052;-80
2021/07/31 09:43:38;;;;;;;8.77;3.47;;;;;;;;;;5051138;28;20043;-81
2021/07/31 09:46:41;;;;;;;4.38;2.88;;;;;;;;;;5040913;28;20086;-77
2021/07/31 09:49:26;;;;;;;5.30;3.25;;;;;;;;;;5058939;28;20034;-78
2021/07/31 09:52:17;;;;;;;5.43;3.10;;;;;;;;;;5034960;28;20127;-81
2021/07/31 09:55:02;;;;;;;6.25;3.35;;;;;;;;;;5024195;28;20063;-81
2021/07/31 09:57:47;;;;;;;4.97;2.97;;;;;;;;;;5038915;28;20414;-81
2021/07/31 10:00:31;;;;;;;6.53;3.40;;;;;;;;;;5038791;28;20119;-83
2021/07/31 10:03:16;;;;;;;4.93;3.25;;;;;;;;;;5047901;28;20040;-81
2021/07/31 10:06:00;;;;;;;8.13;3.47;;;;;;;;;;5042145;28;20111;-81
2021/07/31 10:08:45;;;;;;;6.53;3.45;;;;;;;;;;5045151;28;20052;-81
2021/07/31 10:11:29;;;;;;;7.95;3.85;;;;;;;;;;5031057;28;20151;-79
2021/07/31 10:14:14;;;;;;;6.18;3.42;;;;;;;;;;5045550;28;20051;-80
2021/07/31 10:16:58;;;;;;;7.55;3.75;;;;;;;;;;5045352;28;20448;-80
2021/07/31 10:19:43;;;;;;;8.15;3.60;;;;;;;;;;5029202;28;20079;-81
2021/07/31 10:22:46;;;;;;;5.38;3.28;;;;;;;;;;5043528;28;20040;-82
2021/07/31 10:25:31;;;;;;;7.00;3.50;;;;;;;;;;5030607;28;20413;-82
2021/07/31 10:28:28;;;;;;;8.60;3.90;;;;;;;;;;5055913;28;20655;-80
2021/07/31 10:31:28;;;;;;;7.43;3.40;;;;;;;;;;5034836;28;20634;-84
2021/07/31 10:34:33;;;;;;;8.50;3.83;;;;;;;;;;5033316;28;20094;-83
2021/07/31 10:37:45;;;;;;;9.48;3.72;;;;;;;;;;5047663;28;20043;-82
2021/07/31 10:40:32;;;;;;;8.02;3.60;;;;;;;;;;5063303;28;20392;-81
2021/07/31 10:43:17;;;;;;;7.05;3.35;;;;;;;;;;5064329;28;20677;-82
2021/07/31 10:46:21;;;;;;;8.23;3.45;;;;;;;;;;5032431;28;20048;-81
2021/07/31 10:49:25;;;;;;;8.27;3.78;;;;;;;;;;5041214;28;20046;-82
2021/07/31 10:52:09;;;;;;;7.20;3.60;;;;;;;;;;5053938;28;20124;-82
2021/07/31 10:54:59;;;;;;;8.82;4.57;;;;;;;;;;5042868;28;20400;-82
2021/07/31 10:57:53;;;;;;;7.90;4.00;;;;;;;;;;5031114;28;20070;-79
2021/07/31 11:00:38;;;;;;;9.32;4.63;;;;;;;;;;5056828;28;20447;-83
2021/07/31 11:03:27;;;;;;;8.27;3.88;;;;;;;;;;5043366;28;20120;-82
2021/07/31 11:06:12;;;;;;;10.65;4.65;;;;;;;;;;5049911;28;20074;-82
2021/07/31 11:09:08;;;;;;;8.43;4.10;;;;;;;;;;5037088;28;20067;-82
2021/07/31 11:11:53;;;;;;;8.35;3.83;;;;;;;;;;5029902;28;20078;-82
2021/07/31 11:15:04;;;;;;;8.10;4.03;;;;;;;;;;5048342;28;20070;-82
2021/07/31 11:17:54;;;;;;;6.63;3.67;;;;;;;;;;5063589;28;20090;-83
2021/07/31 11:20:39;;;;;;;8.93;4.80;;;;;;;;;;5034044;28;20327;-82
2021/07/31 11:23:24;;;;;;;18.88;11.10;;;;;;;;;;5053762;28;20139;-82
2021/07/31 11:26:08;;;;;;;13.90;8.57;;;;;;;;;;5034072;28;20117;-84
2021/07/31 11:28:53;;;;;;;11.80;7.65;;;;;;;;;;5039338;28;20508;-83
2021/07/31 11:31:38;;;;;;;12.95;7.35;;;;;;;;;;5041012;28;20043;-83
2021/07/31 11:34:23;;;;;;;9.55;6.70;;;;;;;;;;5028279;28;20871;-82
2021/07/31 11:37:07;;;;;;;9.98;5.07;;;;;;;;;;5033580;28;20044;-82
2021/07/31 11:40:02;;;;;;;9.85;5.85;;;;;;;;;;5061475;28;20554;-82
2021/07/31 11:42:47;;;;;;;10.00;5.03;;;;;;;;;;5033104;28;20246;-81
2021/07/31 11:45:31;;;;;;;8.48;5.32;;;;;;;;;;5039686;28;20782;-81
2021/07/31 11:48:16;;;;;;;6.95;4.13;;;;;;;;;;5044387;28;20040;-80
2021/07/31 11:51:01;;;;;;;6.45;4.30;;;;;;;;;;5048866;28;20161;-80
2021/07/31 11:53:46;;;;;;;7.10;4.10;;;;;;;;;;5048512;28;20043;-81
2021/07/31 11:56:31;;;;;;;5.32;3.72;;;;;;;;;;5026177;28;20043;-82
2021/07/31 11:59:23;;;;;;;5.13;3.58;;;;;;;;;;5041128;28;20102;-81
2021/07/31 12:02:08;;;;;;;15.13;3.90;;;;;;;;;;5023281;28;20774;-76
2021/07/31 12:04:52;;;;;;;3.63;2.97;;;;;;;;;;5033930;28;20540;-77
2021/07/31 12:07:37;;;;;;;4.00;2.53;;;;;;;;;;5037529;28;20462;-77
2021/07/31 12:10:22;;;;;;;5.35;3.00;;;;;;;;;;5036934;28;20039;-75
2021/07/31 12:13:10;;;;;;;3.17;2.55;;;;;;;;;;5058352;28;20124;-76
2021/07/31 12:15:54;;;;;;;4.45;3.42;;;;;;;;;;5048990;28;20075;-75
2021/07/31 12:18:52;;;;;;;5.80;3.60;;;;;;;;;;5029125;28;20052;-75
2021/07/31 12:21:36;;;;;;;4.53;3.45;;;;;;;;;;5048165;28;20569;-75
2021/07/31 12:24:21;;;;;;;7.63;3.45;;;;;;;;;;5081483;28;20054;-75
2021/07/31 12:27:05;;;;;;;4.82;3.55;;;;;;;;;;5052230;28;20075;-77
2021/07/31 12:29:49;;;;;;;8.02;4.07;;;;;;;;;;5049117;28;20757;-77
2021/07/31 12:32:34;;;;;;;8.52;3.53;;;;;;;;;;5044022;28;20097;-79
2021/07/31 12:35:38;;;;;;;4.20;3.55;;;;;;;;;;5038524;28;20576;-79
2021/07/31 12:38:23;;;;;;;4.85;3.22;;;;;;;;;;5064020;28;20410;-80
2021/07/31 12:41:08;;;;;;;7.07;3.13;;;;;;;;;;5046959;28;20066;-79
2021/07/31 12:43:52;;;;;;;5.30;3.30;;;;;;;;;;5063655;28;20566;-77
2021/07/31 12:46:37;;;;;;;3.55;2.80;;;;;;;;;;5040203;28;20885;-76
2021/07/31 12:49:22;;;;;;;4.35;3.08;;;;;;;;;;5047269;28;20397;-76
2021/07/31 12:52:06;;;;;;;4.90;2.78;;;;;;;;;;5050902;28;20067;-75
2021/07/31 12:54:51;;;;;;;5.07;2.72;;;;;;;;;;5032577;28;20077;-76
2021/07/31 12:57:36;;;;;;;3.40;2.88;;;;;;;;;;5035538;28;20043;-77
2021/07/31 13:00:20;;;;;;;3.20;2.60;;;;;;;;;;5037969;28;20051;-76
2021/07/31 13:03:06;;;;;;;4.20;2.70;;;;;;;;;;5037457;28;20642;-78
2021/07/31 13:05:50;;;;;;;7.28;3.28;;;;;;;;;;5050122;28;20512;-77
2021/07/31 13:08:35;;;;;;;4.68;2.85;;;;;;;;;;5038544;28;20662;-77
2021/07/31 13:11:20;;;;;;;5.30;3.05;;;;;;;;;;5067502;28;20046;-77
2021/07/31 13:14:05;;;;;;;3.30;2.50;;;;;;;;;;5052153;28;20476;-76
2021/07/31 13:16:50;;;;;;;5.95;2.72;;;;;;;;;;5037725;28;20035;-78
2021/07/31 13:19:34;;;;;;;4.22;2.90;;;;;;;;;;5051871;28;20418;-75
2021/07/31 13:22:19;;;;;;;3.70;2.55;;;;;;;;;;5067060;28;20039;-76
2021/07/31 13:25:03;;;;;;;4.72;2.72;;;;;;;;;;5037708;28;20055;-76
2021/07/31 13:27:48;;;;;;;4.63;3.03;;;;;;;;;;5051742;28;20043;-76
2021/07/31 13:30:33;;;;;;;3.65;2.75;;;;;;;;;;5037529;28;20094;-76
2021/07/31 13:33:18;;;;;;;3.35;2.60;;;;;;;;;;5037519;28;20039;-76
2021/07/31 13:36:02;;;;;;;6.20;3.08;;;;;;;;;;5066920;28;20413;-75
2021/07/31 13:38:51;;;;;;;4.15;2.78;;;;;;;;;;5036898;28;20044;-76
2021/07/31 13:41:35;;;;;;;3.75;2.70;;;;;;;;;;5066674;28;20086;-76
2021/07/31 13:44:20;;;;;;;3.50;3.03;;;;;;;;;;5051471;28;20382;-76
2021/07/31 13:47:05;;;;;;;4.15;2.88;;;;;;;;;;5037304;28;20047;-77
2021/07/31 13:49:49;;;;;;;3.97;3.00;;;;;;;;;;5050993;28;20673;-76
2021/07/31 13:52:34;;;;;;;3.63;2.75;;;;;;;;;;5066613;28;20047;-78
2021/07/31 13:55:18;;;;;;;4.55;2.92;;;;;;;;;;5050977;28;20055;-75
2021/07/31 13:58:05;;;;;;;4.22;2.90;;;;;;;;;;5051168;28;20051;-77
2021/07/31 14:00:50;;;;;;;3.53;2.50;;;;;;;;;;5037294;28;20125;-77
2021/07/31 14:03:37;;;;;;;3.25;2.70;;;;;;;;;;5036945;28;20412;-76
2021/07/31 14:06:22;;;;;;;3.47;2.78;;;;;;;;;;5049042;28;20047;-77
2021/07/31 14:09:06;;;;;;;3.42;2.75;;;;;;;;;;5051127;28;20039;-77
2021/07/31 14:11:51;;;;;;;4.25;2.65;;;;;;;;;;5036995;28;20055;-76
2021/07/31 14:14:35;;;;;;;3.10;2.55;;;;;;;;;;5051091;28;20121;-77
2021/07/31 14:17:19;;;;;;;4.40;2.80;;;;;;;;;;5050167;28;20071;-76
2021/07/31 14:20:04;;;;;;;3.65;3.00;;;;;;;;;;5050743;28;20050;-76
2021/07/31 14:22:49;;;;;;;4.40;2.80;;;;;;;;;;5036544;28;20530;-76
2021/07/31 14:25:33;;;;;;;3.17;2.50;;;;;;;;;;5050964;28;20051;-76
2021/07/31 14:28:18;;;;;;;3.10;2.30;;;;;;;;;;5036330;28;20664;-76
2021/07/31 14:31:02;;;;;;;4.38;2.80;;;;;;;;;;5036598;28;20040;-76
2021/07/31 14:33:46;;;;;;;3.20;2.60;;;;;;;;;;5050385;28;20035;-77
2021/07/31 14:36:31;;;;;;;3.70;2.58;;;;;;;;;;5050619;28;20039;-76
2021/07/31 14:39:15;;;;;;;3.75;2.72;;;;;;;;;;5050142;28;20043;-75
2021/07/31 14:42:00;;;;;;;4.03;2.63;;;;;;;;;;5050359;28;20097;-75
2021/07/31 14:44:44;;;;;;;3.00;2.45;;;;;;;;;;5050280;28;20035;-76
2021/07/31 14:47:29;;;;;;;4.50;2.60;;;;;;;;;;5050203;28;20121;-75
2021/07/31 14:50:14;;;;;;;4.32;2.60;;;;;;;;;;5035845;28;20122;-76
2021/07/31 14:53:00;;;;;;;3.97;2.70;;;;;;;;;;5050175;28;20232;-76
2021/07/31 14:55:44;;;;;;;3.75;2.33;;;;;;;;;;5049948;28;20035;-76
2021/07/31 14:58:29;;;;;;;3.15;2.58;;;;;;;;;;5065748;28;20551;-77
2021/07/31 15:01:14;;;;;;;3.90;2.60;;;;;;;;;;5050062;28;20074;-76
2021/07/31 15:03:59;;;;;;;4.63;2.85;;;;;;;;;;5049966;28;20607;-75
2021/07/31 15:06:43;;;;;;;5.22;2.90;;;;;;;;;;5035644;28;20051;-76
2021/07/31 15:09:28;;;;;;;3.97;2.70;;;;;;;;;;5050101;28;20047;-76
2021/07/31 15:12:13;;;;;;;4.10;2.90;;;;;;;;;;5049706;28;20697;-77
2021/07/31 15:14:57;;;;;;;3.67;2.60;;;;;;;;;;5049871;28;20043;-76
2021/07/31 15:17:42;;;;;;;4.43;2.85;;;;;;;;;;5064656;28;20496;-77
2021/07/31 15:20:27;;;;;;;4.75;2.90;;;;;;;;;;5049331;28;20047;-77
2021/07/31 15:23:12;;;;;;;3.58;2.65;;;;;;;;;;5064216;28;20702;-76
2021/07/31 15:25:57;;;;;;;3.15;2.65;;;;;;;;;;5049234;28;20064;-76
2021/07/31 15:28:41;;;;;;;4.05;2.60;;;;;;;;;;5063599;28;20120;-76
2021/07/31 15:31:25;;;;;;;3.53;2.80;;;;;;;;;;5049340;28;20523;-77
2021/07/31 15:34:10;;;;;;;3.40;2.70;;;;;;;;;;5049305;28;20047;-77
2021/07/31 15:36:54;;;;;;;3.08;2.78;;;;;;;;;;5064512;28;20063;-76
2021/07/31 15:39:39;;;;;;;3.40;2.80;;;;;;;;;;5064629;28;20926;-76
2021/07/31 15:42:23;;;;;;;4.05;2.55;;;;;;;;;;5049777;28;20078;-76
2021/07/31 15:45:08;;;;;;;3.83;2.72;;;;;;;;;;5049502;28;20137;-77
2021/07/31 15:47:53;;;;;;;3.35;2.72;;;;;;;;;;5035361;28;20567;-76
2021/07/31 15:50:38;;;;;;;2.95;2.50;;;;;;;;;;5034962;28;20202;-75
2021/07/31 15:53:22;;;;;;;3.47;2.90;;;;;;;;;;5049260;28;20043;-76
2021/07/31 15:56:08;;;;;;;3.67;2.72;;;;;;;;;;5049203;28;20063;-76
2021/07/31 15:58:54;;;;;;;3.50;2.60;;;;;;;;;;5049526;28;20039;-75
2021/07/31 16:01:39;;;;;;;2.97;2.67;;;;;;;;;;5035359;28;20048;-77
2021/07/31 16:04:23;;;;;;;3.63;3.00;;;;;;;;;;5034842;28;20895;-78
2021/07/31 16:07:08;;;;;;;3.42;2.80;;;;;;;;;;5064321;28;20572;-77
2021/07/31 16:09:53;;;;;;;3.15;2.60;;;;;;;;;;5049250;28;20039;-76
2021/07/31 16:12:37;;;;;;;3.45;2.58;;;;;;;;;;5049255;28;20082;-76
2021/07/31 16:15:22;;;;;;;3.90;3.00;;;;;;;;;;5048598;28;20031;-76
2021/07/31 16:18:06;;;;;;;3.78;2.80;;;;;;;;;;5035065;28;20123;-76
2021/07/31 16:20:51;;;;;;;3.38;2.60;;;;;;;;;;5034829;28;20062;-76
2021/07/31 16:23:35;;;;;;;3.50;2.80;;;;;;;;;;5049119;28;20050;-77
2021/07/31 16:26:20;;;;;;;3.35;2.95;;;;;;;;;;5048743;28;20063;-77
2021/07/31 16:29:04;;;;;;;3.70;2.78;;;;;;;;;;5034913;28;20047;-75
2021/07/31 16:31:49;;;;;;;3.70;2.67;;;;;;;;;;5048861;28;20078;-75